CheckWX is a tool to help pilots better visualize weather data.  It is not intended as a substitute for an official pre-flight weather briefing.

16:55:30 UTC

ROAH TAF
Naha Airport
Naha, Japan
TAF ROAH 181107Z 1812/1918 22010KT 9999 FEW008 BKN015 TEMPO 1812/1818 FEW005 BKN008 TEMPO 1818/1821 4000 TSRA FEW005 BKN008 FEW020CB TEMPO 1903/1909 3000 TSRA FEW005 BKN008 SCT020CB

Jun-18@
12:00 UTC

Jun-18 @ 12:00 UTC

Jun-19@
18:00 UTC

Jun-19 @ 18:00 UTC

TAF ROAH 181107Z 1812/1918 22010KT 9999 FEW008 BKN015
Wind
  • 220° at 10 KTS
Cloud Levels
  • Few at 800' AGL
  • Broken at 1,500' AGL

Jun-18@
12:00 UTC

Jun-18 @ 12:00 UTC

Jun-18@
18:00 UTC

Jun-18 @ 18:00 UTC

TEMPO 1812/1818 FEW005 BKN008

Temporary

Temporary Changes expected for less than half the time period

Cloud Levels
  • Few at 500' AGL
  • Broken at 800' AGL

Jun-18@
18:00 UTC

Jun-18 @ 18:00 UTC

Jun-18@
21:00 UTC

Jun-18 @ 21:00 UTC

TEMPO 1818/1821 4000 TSRA FEW005 BKN008 FEW020CB

Temporary

Temporary Changes expected for less than half the time period

Conditions
Thunderstorm, Rain
Cloud Levels
  • Few at 500' AGL
  • Broken at 800' AGL
  • Few at 2,000' AGL

Jun-19@
03:00 UTC

Jun-19 @ 03:00 UTC

Jun-19@
09:00 UTC

Jun-19 @ 09:00 UTC

TEMPO 1903/1909 3000 TSRA FEW005 BKN008 SCT020CB

Temporary

Temporary Changes expected for less than half the time period

Conditions
Thunderstorm, Rain
Cloud Levels
  • Few at 500' AGL
  • Broken at 800' AGL
  • Scattered at 2,000' AGL